createdAt,value
2023-04-27T00:01:19.644Z,6.93
2023-04-27T00:03:46.795Z,6.92
2023-04-27T00:06:13.723Z,6.89
2023-04-27T00:08:41.499Z,6.85
2023-04-27T00:11:08.358Z,6.84
2023-04-27T00:13:35.271Z,6.82
2023-04-27T00:16:03.311Z,6.82
2023-04-27T00:18:30.509Z,6.83
2023-04-27T00:20:57.554Z,6.81
2023-04-27T00:23:24.402Z,6.76
2023-04-27T00:25:51.118Z,6.70
2023-04-27T00:28:17.892Z,6.69
2023-04-27T00:30:44.745Z,6.68
2023-04-27T00:33:11.593Z,6.66
2023-04-27T00:35:38.299Z,6.62
2023-04-27T00:38:05.251Z,6.58
2023-04-27T00:40:33.929Z,6.57
2023-04-27T00:43:00.858Z,6.54
2023-04-27T00:45:27.723Z,6.51
2023-04-27T00:47:55.548Z,6.49
2023-04-27T00:50:29.077Z,6.43
2023-04-27T00:52:56.028Z,6.40
2023-04-27T00:55:23.531Z,6.40
2023-04-27T00:57:50.420Z,6.41
2023-04-27T01:00:17.412Z,6.38
2023-04-27T01:02:44.612Z,6.35
2023-04-27T01:05:11.996Z,6.36
2023-04-27T01:07:39.457Z,6.37
2023-04-27T01:10:07.097Z,6.38
2023-04-27T01:12:36.237Z,6.38
2023-04-27T01:15:05.915Z,6.34
2023-04-27T01:17:32.616Z,6.30
2023-04-27T01:19:59.574Z,6.29
2023-04-27T01:22:26.486Z,6.25
2023-04-27T01:24:53.296Z,6.20
2023-04-27T01:27:20.443Z,6.17
2023-04-27T01:29:47.062Z,6.15
2023-04-27T01:32:13.872Z,6.14
2023-04-27T01:34:40.812Z,6.16
2023-04-27T01:37:07.552Z,6.17
2023-04-27T01:39:34.862Z,6.17
2023-04-27T01:42:03.134Z,6.17
2023-04-27T01:44:30.654Z,6.16
2023-04-27T01:46:57.364Z,6.17
2023-04-27T01:49:24.390Z,6.18
2023-04-27T01:51:51.113Z,6.18
2023-04-27T01:54:17.724Z,6.17
2023-04-27T01:56:44.590Z,6.16
2023-04-27T01:59:11.721Z,6.09
2023-04-27T02:01:38.886Z,6.03
2023-04-27T02:04:06.043Z,6.02
2023-04-27T02:06:33.640Z,6.00
2023-04-27T02:09:00.367Z,5.99
2023-04-27T02:11:27.174Z,6.00
2023-04-27T02:13:54.685Z,6.00
2023-04-27T02:16:31.411Z,5.99
2023-04-27T02:18:58.978Z,5.99
2023-04-27T02:21:25.875Z,6.00
2023-04-27T02:23:52.449Z,6.00
2023-04-27T02:26:19.898Z,6.00
2023-04-27T02:28:49.577Z,5.97
2023-04-27T02:31:16.775Z,5.95
2023-04-27T02:33:43.577Z,5.94
2023-04-27T02:36:10.479Z,5.92
2023-04-27T02:38:37.216Z,5.90
2023-04-27T02:41:03.921Z,5.88
2023-04-27T02:43:31.156Z,5.88
2023-04-27T02:46:02.614Z,5.92
2023-04-27T02:48:32.730Z,5.96
2023-04-27T02:51:02.879Z,5.98
2023-04-27T02:53:29.848Z,5.94
2023-04-27T02:55:57.931Z,5.90
2023-04-27T02:58:24.680Z,5.87
2023-04-27T03:00:55.367Z,5.86
2023-04-27T03:03:22.953Z,5.85
2023-04-27T03:05:49.928Z,5.83
2023-04-27T03:08:16.889Z,5.81
2023-04-27T03:10:43.707Z,5.79
2023-04-27T03:13:10.443Z,5.82
2023-04-27T03:15:37.270Z,5.81
2023-04-27T03:18:04.502Z,5.78
2023-04-27T03:20:31.468Z,5.75
2023-04-27T03:22:58.239Z,5.70
2023-04-27T03:25:24.866Z,5.64
2023-04-27T03:27:51.802Z,5.58
2023-04-27T03:30:18.506Z,5.54
2023-04-27T03:32:47.712Z,5.53
2023-04-27T03:35:15.235Z,5.52
2023-04-27T03:37:42.025Z,5.50
2023-04-27T03:40:09.255Z,5.49
2023-04-27T03:42:36.649Z,5.47
2023-04-27T03:45:05.128Z,5.44
2023-04-27T03:47:32.402Z,5.44
2023-04-27T03:49:59.273Z,5.44
2023-04-27T03:52:26.719Z,5.44
2023-04-27T03:54:53.647Z,5.45
2023-04-27T03:57:20.935Z,5.45
2023-04-27T03:59:47.618Z,5.46
2023-04-27T04:02:14.637Z,5.47
2023-04-27T04:04:41.822Z,5.48
2023-04-27T04:07:08.671Z,5.51
2023-04-27T04:09:35.572Z,5.52
2023-04-27T04:12:03.220Z,5.53
2023-04-27T04:14:30.038Z,5.56
2023-04-27T04:16:59.203Z,5.59
2023-04-27T04:19:25.980Z,5.59
2023-04-27T04:21:54.098Z,5.59
2023-04-27T04:24:21.171Z,5.55
2023-04-27T04:26:47.995Z,5.52
2023-04-27T04:29:14.975Z,5.50
2023-04-27T04:31:42.139Z,5.50
2023-04-27T04:34:09.490Z,5.50
2023-04-27T04:36:37.487Z,5.49
2023-04-27T04:39:04.714Z,5.50
2023-04-27T04:41:32.434Z,5.52
2023-04-27T04:44:00.127Z,5.54
2023-04-27T04:46:27.997Z,5.55
2023-04-27T04:48:55.080Z,5.53
2023-04-27T04:51:21.924Z,5.49
2023-04-27T04:53:49.954Z,5.48
2023-04-27T04:56:16.613Z,5.47
2023-04-27T04:58:43.288Z,5.46
2023-04-27T05:01:10.292Z,5.43
2023-04-27T05:03:37.139Z,5.42
2023-04-27T05:06:04.263Z,5.41
2023-04-27T05:08:30.982Z,5.42
2023-04-27T05:10:57.678Z,5.41
2023-04-27T05:13:25.164Z,5.40
2023-04-27T05:15:51.874Z,5.41
2023-04-27T05:18:19.228Z,5.44
2023-04-27T05:20:46.008Z,5.45
2023-04-27T05:23:12.841Z,5.46
2023-04-27T05:25:42.587Z,5.44
2023-04-27T05:28:09.848Z,5.45
2023-04-27T05:30:37.476Z,5.45
2023-04-27T05:33:04.460Z,5.46
2023-04-27T05:35:31.790Z,5.48
2023-04-27T05:37:58.713Z,5.49
2023-04-27T05:40:25.557Z,5.52
2023-04-27T05:42:52.304Z,5.54
2023-04-27T05:45:19.075Z,5.58
2023-04-27T05:47:45.983Z,5.59
2023-04-27T05:50:12.729Z,5.60
2023-04-27T05:52:40.070Z,5.59
2023-04-27T05:55:07.739Z,5.60
2023-04-27T05:57:34.994Z,5.62
2023-04-27T06:00:06.777Z,5.61
2023-04-27T06:02:40.132Z,5.62
2023-04-27T06:05:07.849Z,5.63
2023-04-27T06:07:36.849Z,5.65
2023-04-27T06:10:04.528Z,5.63
2023-04-27T06:12:31.908Z,5.62
2023-04-27T06:14:58.739Z,5.60
2023-04-27T06:17:25.522Z,5.60
2023-04-27T06:19:52.330Z,5.59
2023-04-27T06:22:18.970Z,5.59
2023-04-27T06:24:46.242Z,5.62
2023-04-27T06:27:12.870Z,5.63
2023-04-27T06:29:39.605Z,5.67
2023-04-27T06:32:06.241Z,5.73
2023-04-27T06:34:34.561Z,5.78
2023-04-27T06:37:01.815Z,5.80
2023-04-27T06:39:28.701Z,5.81
2023-04-27T06:41:55.624Z,5.82
2023-04-27T06:44:24.889Z,5.81
2023-04-27T06:46:51.635Z,5.81
2023-04-27T06:49:18.412Z,5.85
2023-04-27T06:51:46.113Z,5.87
2023-04-27T06:54:12.864Z,5.89
2023-04-27T06:56:39.711Z,5.91
2023-04-27T06:59:07.231Z,5.92
2023-04-27T07:01:35.090Z,5.93
2023-04-27T07:04:03.064Z,5.94
2023-04-27T07:06:31.025Z,5.95
2023-04-27T07:08:57.799Z,5.96
2023-04-27T07:11:24.766Z,5.98
2023-04-27T07:13:51.485Z,6.01
2023-04-27T07:16:18.618Z,6.03
2023-04-27T07:18:45.900Z,6.07
2023-04-27T07:21:12.623Z,6.10
2023-04-27T07:23:40.864Z,6.12
2023-04-27T07:26:07.675Z,6.16
2023-04-27T07:28:34.846Z,6.19
2023-04-27T07:31:04.098Z,6.25
2023-04-27T07:33:34.551Z,6.31
2023-04-27T07:36:02.113Z,6.33
2023-04-27T07:38:30.116Z,6.35
2023-04-27T07:40:58.167Z,6.35
2023-04-27T07:43:25.227Z,6.37
2023-04-27T07:45:51.972Z,6.37
2023-04-27T07:48:19.090Z,6.39
2023-04-27T07:50:46.148Z,6.39
2023-04-27T07:53:13.033Z,6.38
2023-04-27T07:55:41.076Z,6.35
2023-04-27T07:58:07.847Z,6.37
2023-04-27T08:00:34.546Z,6.39
2023-04-27T08:03:01.464Z,6.41
2023-04-27T08:05:28.997Z,6.41
2023-04-27T08:07:56.398Z,6.46
2023-04-27T08:10:23.445Z,6.51
2023-04-27T08:12:50.149Z,6.54
2023-04-27T08:15:17.416Z,6.60
2023-04-27T08:17:44.448Z,6.63
2023-04-27T08:20:11.431Z,6.66
2023-04-27T08:22:40.039Z,6.67
2023-04-27T08:25:08.044Z,6.68
2023-04-27T08:27:39.370Z,6.68
2023-04-27T08:30:06.601Z,6.66
2023-04-27T08:32:33.644Z,6.65
2023-04-27T08:35:00.754Z,6.64
2023-04-27T08:37:27.448Z,6.63
2023-04-27T08:39:54.173Z,6.63
2023-04-27T08:42:21.127Z,6.63
2023-04-27T08:44:47.812Z,6.62
2023-04-27T08:47:14.795Z,6.65
2023-04-27T08:49:42.286Z,6.68
2023-04-27T08:52:13.154Z,6.70
2023-04-27T08:54:40.227Z,6.70
2023-04-27T08:57:13.570Z,6.71
2023-04-27T08:59:40.393Z,6.71
2023-04-27T09:02:18.058Z,6.75
2023-04-27T09:04:45.040Z,6.82
2023-04-27T09:07:16.978Z,6.86
2023-04-27T09:09:44.014Z,6.89
2023-04-27T09:12:18.374Z,6.89
2023-04-27T09:15:06.121Z,6.90
2023-04-27T09:17:33.242Z,6.91
2023-04-27T09:20:12.514Z,6.88
2023-04-27T09:22:46.695Z,6.85
2023-04-27T09:25:32.127Z,6.85
2023-04-27T09:27:59.495Z,6.85
2023-04-27T09:30:26.773Z,6.82
2023-04-27T09:32:58.570Z,6.80
2023-04-27T09:35:29.685Z,6.81
2023-04-27T09:37:56.716Z,6.81
2023-04-27T09:40:27.283Z,6.81
2023-04-27T09:42:58.253Z,6.81
2023-04-27T09:45:24.933Z,6.81
2023-04-27T09:47:51.805Z,6.84
2023-04-27T09:50:18.705Z,6.87
2023-04-27T09:52:45.856Z,6.91
2023-04-27T09:55:27.723Z,6.93
2023-04-27T09:58:06.709Z,6.91
2023-04-27T10:01:08.348Z,6.87
2023-04-27T10:04:18.692Z,6.89
2023-04-27T10:07:04.758Z,6.92
2023-04-27T10:09:42.218Z,6.88
2023-04-27T10:12:22.060Z,6.85
2023-04-27T10:14:49.591Z,6.82
2023-04-27T10:17:16.832Z,6.79
2023-04-27T10:20:00.547Z,6.77
2023-04-27T10:22:44.153Z,6.77
2023-04-27T10:25:22.270Z,6.77
2023-04-27T10:27:51.606Z,6.73
2023-04-27T10:30:19.341Z,6.70
2023-04-27T10:32:58.602Z,6.72
2023-04-27T10:35:33.049Z,6.74
2023-04-27T10:38:17.497Z,6.75
2023-04-27T10:40:45.931Z,6.75
2023-04-27T10:43:16.935Z,6.74
2023-04-27T10:45:44.172Z,6.74
2023-04-27T10:48:15.152Z,6.73
2023-04-27T10:50:44.258Z,6.72
2023-04-27T10:53:10.826Z,6.71
2023-04-27T10:55:37.557Z,6.70
2023-04-27T10:58:04.342Z,6.69
2023-04-27T11:00:43.928Z,6.71
2023-04-27T11:03:16.462Z,6.76
2023-04-27T11:05:47.273Z,6.83
2023-04-27T11:08:18.308Z,6.87
2023-04-27T11:10:49.240Z,6.90
2023-04-27T11:13:21.693Z,6.89
2023-04-27T11:15:50.310Z,6.90
2023-04-27T11:18:17.710Z,6.93
2023-04-27T11:20:49.528Z,6.96
2023-04-27T11:23:24.795Z,6.99
2023-04-27T11:25:51.897Z,7.00
2023-04-27T11:28:19.350Z,7.01
2023-04-27T11:30:45.950Z,7.02
2023-04-27T11:33:12.689Z,6.97
2023-04-27T11:35:39.441Z,6.95
2023-04-27T11:38:06.267Z,6.93
2023-04-27T11:40:35.438Z,6.86
2023-04-27T11:43:03.805Z,6.80
2023-04-27T11:45:30.550Z,6.78
2023-04-27T11:47:58.276Z,6.75
2023-04-27T11:50:26.234Z,6.74
2023-04-27T11:52:52.908Z,6.76
2023-04-27T11:55:20.592Z,6.76
2023-04-27T11:57:47.350Z,6.74
2023-04-27T12:00:14.739Z,6.75
2023-04-27T12:02:42.974Z,6.75
2023-04-27T12:05:11.568Z,6.75
2023-04-27T12:07:39.318Z,6.77
2023-04-27T12:10:07.246Z,6.78
2023-04-27T12:12:35.473Z,6.77
2023-04-27T12:15:02.390Z,6.78
2023-04-27T12:17:29.748Z,6.79
2023-04-27T12:19:56.549Z,6.79
2023-04-27T12:22:23.131Z,6.77
2023-04-27T12:24:50.339Z,6.76
2023-04-27T12:27:17.108Z,6.77
2023-04-27T12:29:43.781Z,6.80
2023-04-27T12:32:11.046Z,6.83
2023-04-27T12:34:38.824Z,6.86
2023-04-27T12:37:06.103Z,6.90
2023-04-27T12:39:32.926Z,6.94
2023-04-27T12:41:59.983Z,6.95
2023-04-27T12:44:26.898Z,6.97
2023-04-27T12:46:53.545Z,6.97
2023-04-27T12:49:20.616Z,6.97
2023-04-27T12:51:51.096Z,7.00
2023-04-27T12:54:17.782Z,7.03
2023-04-27T12:56:44.593Z,7.05
2023-04-27T12:59:11.324Z,7.07
2023-04-27T13:01:38.231Z,7.09
2023-04-27T13:04:06.541Z,7.11
2023-04-27T13:06:33.689Z,7.12
2023-04-27T13:09:00.420Z,7.10
2023-04-27T13:11:27.254Z,7.07
2023-04-27T13:13:54.533Z,7.05
2023-04-27T13:16:24.125Z,7.01
2023-04-27T13:18:51.775Z,7.00
2023-04-27T13:21:18.660Z,7.00
2023-04-27T13:23:46.381Z,7.00
2023-04-27T13:26:16.638Z,6.98
2023-04-27T13:28:43.345Z,6.94
2023-04-27T13:31:10.363Z,6.90
2023-04-27T13:33:43.664Z,6.85
2023-04-27T13:36:11.001Z,6.83
2023-04-27T13:38:38.941Z,6.82
2023-04-27T13:41:06.043Z,6.77
2023-04-27T13:43:33.528Z,6.71
2023-04-27T13:46:01.357Z,6.69
2023-04-27T13:48:29.097Z,6.68
2023-04-27T13:50:56.063Z,6.69
2023-04-27T13:53:25.985Z,6.72
2023-04-27T13:55:53.705Z,6.76
2023-04-27T13:58:20.900Z,6.81
2023-04-27T14:00:47.833Z,6.86
2023-04-27T14:03:18.085Z,6.91
2023-04-27T14:05:44.934Z,6.94
2023-04-27T14:08:11.978Z,6.94
2023-04-27T14:10:39.244Z,6.95
2023-04-27T14:13:05.921Z,6.96
2023-04-27T14:15:36.539Z,6.97
2023-04-27T14:18:07.305Z,6.96
2023-04-27T14:20:35.215Z,6.94
2023-04-27T14:23:03.460Z,6.93
2023-04-27T14:25:32.323Z,6.93
2023-04-27T14:28:05.347Z,6.94
2023-04-27T14:30:32.610Z,6.96
2023-04-27T14:32:59.627Z,6.97
2023-04-27T14:35:27.080Z,7.00
2023-04-27T14:37:56.117Z,7.02
2023-04-27T14:40:23.176Z,7.03
2023-04-27T14:42:50.040Z,7.04
2023-04-27T14:45:18.253Z,7.04
2023-04-27T14:47:45.098Z,7.07
2023-04-27T14:50:12.334Z,7.10
2023-04-27T14:52:39.738Z,7.12
2023-04-27T14:55:09.862Z,7.16
2023-04-27T14:57:37.118Z,7.18
2023-04-27T15:00:09.186Z,7.20
2023-04-27T15:02:39.370Z,7.24
2023-04-27T15:05:06.651Z,7.28
2023-04-27T15:07:33.755Z,7.31
2023-04-27T15:10:00.451Z,7.34
2023-04-27T15:12:27.213Z,7.36
2023-04-27T15:14:53.965Z,7.35
2023-04-27T15:17:20.607Z,7.37
2023-04-27T15:19:47.580Z,7.38
2023-04-27T15:22:14.346Z,7.38
2023-04-27T15:24:41.053Z,7.36
2023-04-27T15:27:09.725Z,7.34
2023-04-27T15:29:37.074Z,7.31
2023-04-27T15:32:04.053Z,7.31
2023-04-27T15:34:31.259Z,7.30
2023-04-27T15:36:57.917Z,7.28
2023-04-27T15:39:24.756Z,7.27
2023-04-27T15:41:51.662Z,7.26
2023-04-27T15:44:18.373Z,7.26
2023-04-27T15:46:45.338Z,7.24
2023-04-27T15:49:12.559Z,7.25
2023-04-27T15:51:39.425Z,7.26
2023-04-27T15:54:06.182Z,7.27
2023-04-27T15:56:33.222Z,7.26
2023-04-27T15:58:59.976Z,7.25
2023-04-27T16:01:26.913Z,7.25
2023-04-27T16:03:53.853Z,7.26
2023-04-27T16:06:20.846Z,7.27
2023-04-27T16:08:47.562Z,7.28
2023-04-27T16:11:14.371Z,7.28
2023-04-27T16:13:41.074Z,7.27
2023-04-27T16:16:07.943Z,7.26
2023-04-27T16:18:35.438Z,7.24
2023-04-27T16:21:03.107Z,7.24
2023-04-27T16:23:30.284Z,7.24
2023-04-27T16:25:56.934Z,7.23
2023-04-27T16:28:23.584Z,7.23
2023-04-27T16:30:50.673Z,7.23
2023-04-27T16:33:18.639Z,7.25
2023-04-27T16:35:45.522Z,7.24
2023-04-27T16:38:12.492Z,7.25
2023-04-27T16:40:39.204Z,7.25
2023-04-27T16:43:05.959Z,7.24
2023-04-27T16:45:32.945Z,7.22
2023-04-27T16:48:01.101Z,7.20
2023-04-27T16:50:30.943Z,7.18
2023-04-27T16:53:11.019Z,7.16
2023-04-27T16:55:37.646Z,7.14
2023-04-27T16:58:05.687Z,7.16
2023-04-27T17:00:32.997Z,7.17
2023-04-27T17:03:00.465Z,7.18
2023-04-27T17:05:27.279Z,7.20
2023-04-27T17:07:54.087Z,7.20
2023-04-27T17:10:21.775Z,7.21
2023-04-27T17:12:48.384Z,7.21
2023-04-27T17:15:15.162Z,7.21
2023-04-27T17:17:42.087Z,7.20
2023-04-27T17:20:09.720Z,7.18
2023-04-27T17:22:36.943Z,7.18
2023-04-27T17:25:03.988Z,7.18
2023-04-27T17:27:31.030Z,7.17
2023-04-27T17:29:57.954Z,7.16
2023-04-27T17:32:25.623Z,7.15
2023-04-27T17:34:52.383Z,7.16
2023-04-27T17:37:19.256Z,7.16
2023-04-27T17:39:46.811Z,7.16
2023-04-27T17:42:13.664Z,7.15
2023-04-27T17:44:41.540Z,7.15
2023-04-27T17:47:08.529Z,7.15
2023-04-27T17:49:35.429Z,7.17
2023-04-27T17:52:02.126Z,7.18
2023-04-27T17:54:31.268Z,7.19
2023-04-27T17:56:58.101Z,7.17
2023-04-27T17:59:24.822Z,7.17
2023-04-27T18:01:51.918Z,7.17
2023-04-27T18:04:18.836Z,7.17
2023-04-27T18:06:45.636Z,7.19
2023-04-27T18:09:13.076Z,7.17
2023-04-27T18:11:40.865Z,7.16
2023-04-27T18:14:07.928Z,7.16
2023-04-27T18:16:34.924Z,7.15
2023-04-27T18:19:01.886Z,7.13
2023-04-27T18:21:29.407Z,7.12
2023-04-27T18:23:56.325Z,7.11
2023-04-27T18:26:23.067Z,7.08
2023-04-27T18:28:50.271Z,7.08
2023-04-27T18:31:17.212Z,7.08
2023-04-27T18:33:47.235Z,7.08
2023-04-27T18:36:14.095Z,7.09
2023-04-27T18:38:40.835Z,7.10
2023-04-27T18:41:07.573Z,7.09
2023-04-27T18:43:36.041Z,7.07
2023-04-27T18:46:03.277Z,7.06
2023-04-27T18:48:30.191Z,7.04
2023-04-27T18:50:57.085Z,7.02
2023-04-27T18:53:24.025Z,7.02
2023-04-27T18:55:51.993Z,7.02
2023-04-27T18:58:19.175Z,7.01
2023-04-27T19:00:45.845Z,7.01
2023-04-27T19:03:12.739Z,7.01
2023-04-27T19:05:42.266Z,7.00
2023-04-27T19:08:09.443Z,6.97
2023-04-27T19:10:36.408Z,6.96
2023-04-27T19:13:03.236Z,6.96
2023-04-27T19:15:29.922Z,6.95
2023-04-27T19:18:02.832Z,6.97
2023-04-27T19:20:37.088Z,6.98
2023-04-27T19:23:04.642Z,6.98
2023-04-27T19:25:31.296Z,6.97
2023-04-27T19:27:58.071Z,6.97
2023-04-27T19:30:24.895Z,6.98
2023-04-27T19:32:51.778Z,6.98
2023-04-27T19:35:23.004Z,6.99
2023-04-27T19:37:50.274Z,6.99
2023-04-27T19:40:17.504Z,6.99
2023-04-27T19:42:44.554Z,6.99
2023-04-27T19:45:11.490Z,6.97
2023-04-27T19:47:38.469Z,6.97
2023-04-27T19:50:05.605Z,6.96
2023-04-27T19:52:32.676Z,6.95
2023-04-27T19:54:59.429Z,6.93
2023-04-27T19:57:26.128Z,6.93
2023-04-27T19:59:52.909Z,6.94
2023-04-27T20:02:19.810Z,6.93
2023-04-27T20:04:46.645Z,6.93
2023-04-27T20:07:13.481Z,6.94
2023-04-27T20:09:40.264Z,6.97
2023-04-27T20:14:36.948Z,6.97
2023-04-27T20:17:04.280Z,6.97
2023-04-27T20:19:31.641Z,6.96
2023-04-27T20:21:58.918Z,6.95
2023-04-27T20:24:26.393Z,6.97
2023-04-27T20:26:52.952Z,6.96
2023-04-27T20:29:19.627Z,6.95
2023-04-27T20:31:47.937Z,6.95
2023-04-27T20:34:14.855Z,6.95
2023-04-27T20:36:43.765Z,6.96
2023-04-27T20:39:11.533Z,6.96
2023-04-27T20:41:41.251Z,6.98
2023-04-27T20:44:08.638Z,6.98
2023-04-27T20:46:35.986Z,6.98
2023-04-27T20:49:03.714Z,6.97
2023-04-27T20:51:32.296Z,6.98
2023-04-27T20:53:59.055Z,6.98
2023-04-27T20:56:29.973Z,6.98
2023-04-27T20:58:57.042Z,6.97
2023-04-27T21:01:23.668Z,6.97
2023-04-27T21:03:50.638Z,6.98
2023-04-27T21:06:17.573Z,6.98
2023-04-27T21:08:44.563Z,6.98
2023-04-27T21:11:11.387Z,6.98
2023-04-27T21:13:38.176Z,6.99
2023-04-27T21:16:05.399Z,6.98
2023-04-27T21:18:32.235Z,6.99
2023-04-27T21:20:59.031Z,6.98
2023-04-27T21:23:25.702Z,6.98
2023-04-27T21:25:52.416Z,6.97
2023-04-27T21:28:19.104Z,6.95
2023-04-27T21:30:46.014Z,6.93
2023-04-27T21:33:12.963Z,6.91
2023-04-27T21:35:40.064Z,6.91
2023-04-27T21:38:06.696Z,6.91
2023-04-27T21:40:33.355Z,6.91
2023-04-27T21:43:01.309Z,6.90
2023-04-27T21:45:28.200Z,6.90
2023-04-27T21:47:55.019Z,6.90
2023-04-27T21:50:21.691Z,6.90
2023-04-27T21:52:48.409Z,6.88
2023-04-27T21:55:15.023Z,6.86
2023-04-27T21:57:41.725Z,6.85
2023-04-27T22:00:12.765Z,6.85
2023-04-27T22:02:44.547Z,6.83
2023-04-27T22:05:11.607Z,6.82
2023-04-27T22:07:38.637Z,6.81
2023-04-27T22:10:05.709Z,6.81
2023-04-27T22:12:33.022Z,6.79
2023-04-27T22:14:59.815Z,6.77
2023-04-27T22:17:27.106Z,6.76
2023-04-27T22:19:54.171Z,6.77
2023-04-27T22:22:20.919Z,6.77
2023-04-27T22:24:48.016Z,6.77
2023-04-27T22:27:15.163Z,6.76
2023-04-27T22:29:41.772Z,6.75
2023-04-27T22:32:08.539Z,6.76
2023-04-27T22:34:36.630Z,6.77
2023-04-27T22:37:03.304Z,6.77
2023-04-27T22:39:31.023Z,6.77
2023-04-27T22:41:57.952Z,6.76
2023-04-27T22:44:25.319Z,6.75
2023-04-27T22:46:52.142Z,6.73
2023-04-27T22:49:18.790Z,6.72
2023-04-27T22:51:46.524Z,6.72
2023-04-27T22:54:13.368Z,6.71
2023-04-27T22:56:40.548Z,6.70
2023-04-27T22:59:07.214Z,6.69
2023-04-27T23:01:34.129Z,6.68
2023-04-27T23:04:01.397Z,6.68
2023-04-27T23:06:28.117Z,6.69
2023-04-27T23:08:56.164Z,6.68
2023-04-27T23:11:23.325Z,6.66
2023-04-27T23:13:50.359Z,6.65
2023-04-27T23:16:16.992Z,6.64
2023-04-27T23:18:43.690Z,6.63
2023-04-27T23:21:10.997Z,6.62
2023-04-27T23:23:37.697Z,6.62
2023-04-27T23:26:12.495Z,6.61
2023-04-27T23:28:39.490Z,6.59
2023-04-27T23:31:06.236Z,6.56
2023-04-27T23:33:33.293Z,6.54
2023-04-27T23:36:00.504Z,6.53
2023-04-27T23:38:28.137Z,6.53
2023-04-27T23:40:54.739Z,6.52
2023-04-27T23:43:22.304Z,6.53
2023-04-27T23:45:50.325Z,6.53
2023-04-27T23:48:17.528Z,6.52
2023-04-27T23:50:44.350Z,6.50
2023-04-27T23:53:11.086Z,6.49
2023-04-27T23:55:37.920Z,6.49
2023-04-27T23:58:04.868Z,6.50
